Metlakatla, AK (99926)

3:47 PM AKST on February 13, 2016 (GMT -0900)
Metlakatla | | Change Station
CLOSE
Current Station
Airport
Location: Metlakatla,
Elevation: 0 ft
Nearby Weather Stations

Elev 0 ft 55.13 °N, 131.58 °W | Updated 11 minutes ago

Overcast
Overcast
45 °F
Feels Like 42 °F
N
5
Wind Variable Wind from East

Today
High -- | Low -- °F
--% Chance of Precip.
Yesterday
High -- | Low -- °F
Precip. -- in
Pressure 29.63 in
Visibility 10.0 miles
Clouds Mostly Cloudy 3900 ft
Mostly Cloudy 4500 ft
Overcast 4900 ft
Windchill 42 °F
Dew Point 37 °F
Humidity 76%
Rainfall 0.10 in
Snow Depth Not available.
7:13 AM 4:47 PM
Waxing Crescent, 36% visible
METAR PAMM 140036Z AUTO 09004KT 10SM BKN039 BKN045 OVC049 07/03 A2963 RMK AO1 P0001
Pressure 29.63 in
Visibility 10.0 miles
Clouds Mostly Cloudy 3900 ft
Mostly Cloudy 4500 ft
Overcast 4900 ft
Windchill 42 °F
Dew Point 37 °F
Humidity 76%
Rainfall 0.10 in
Snow Depth Not available.
7:13 AM 4:47 PM
Waxing Crescent, 36% visible
METAR PAMM 140036Z AUTO 09004KT 10SM BKN039 BKN045 OVC049 07/03 A2963 RMK AO1 P0001

10-Day Weather Forecast

Almanac

Astronomy

Feb. 13, 2016 Rise Set
Actual Time
Civil Twilight
Nautical Twilight
Astronomical Twilight
Moon
Length of Visible Light
Length of Day
Tomorrow will be .
, % of the Moon is Illuminated

Today's Extremes

State Highs State Lows

Community

WunderPhotos

Upload Photos

1,892,715 photos uploaded!

WunderBlog® & News

Nearby

Air Quality

  Air Quality AQ Index Pollutant
Not available.

Snow Depth

Station Depth Elevation

Earthquake Activity

City Distance Mag. Time & Date
Minimum magnitude displayed is 2.5.

Coastal Water Temperatures

Place Temperature

Stations

Nearby Weather Stations

Station Location Temp. Windchill Dew Point Humidity Wind Precip. Elev Updated Type
                   

Watches & Warnings

There are currently no watches in effect.